Time;durP1;ratioP1;P1;durP2;ratioP2;P2;SDS_P1;SDS_P2;PMS_P1;PMS_P2;Temp;Humidity;BMP_temperature;BMP_pressure;BME280_temperature;BME280_humidity;BME280_pressure;Samples;Min_cycle;Max_cycle;Signal;HPM_P1;HPM_P2
2020/12/13 00:01:28;;;;;;;69.53;41.65;;;5.90;99.90;;;;;;5133716;27;20042;-55
2020/12/13 00:04:31;;;;;;;84.75;50.25;;;5.80;99.90;;;;;;5133803;27;20034;-49
2020/12/13 00:07:35;;;;;;;129.40;64.57;;;5.90;99.90;;;;;;5133901;27;20062;-51
2020/12/13 00:10:40;;;;;;;83.97;50.85;;;5.90;99.90;;;;;;5120499;27;20038;-52
2020/12/13 00:13:44;;;;;;;85.35;56.75;;;5.80;99.90;;;;;;5133644;27;20401;-53
2020/12/13 00:16:52;;;;;;;81.60;52.35;;;5.80;99.90;;;;;;5133430;27;20045;-52
2020/12/13 00:19:57;;;;;;;156.45;73.72;;;5.80;99.90;;;;;;5133365;27;20034;-50
2020/12/13 00:23:01;;;;;;;54.60;34.72;;;5.80;99.90;;;;;;5133504;27;20050;-50
2020/12/13 00:26:09;;;;;;;50.17;32.22;;;5.80;99.90;;;;;;5121435;27;20054;-52
2020/12/13 00:29:15;;;;;;;53.88;33.83;;;5.70;99.90;;;;;;5118702;27;20046;-49
2020/12/13 00:32:19;;;;;;;73.75;42.60;;;5.60;99.90;;;;;;5133314;27;20030;-52
2020/12/13 00:35:23;;;;;;;69.65;43.75;;;5.60;99.90;;;;;;5133165;27;20042;-50
2020/12/13 00:38:27;;;;;;;67.57;43.22;;;5.50;99.90;;;;;;5121284;27;20050;-52
2020/12/13 00:41:32;;;;;;;67.57;40.63;;;5.50;99.90;;;;;;5132372;27;20401;-54
2020/12/13 00:44:36;;;;;;;72.53;48.67;;;5.40;99.90;;;;;;5129423;27;20046;-51
2020/12/13 00:47:40;;;;;;;70.15;43.80;;;5.40;99.90;;;;;;5133204;27;20042;-49
2020/12/13 00:50:44;;;;;;;59.08;40.10;;;5.30;99.90;;;;;;5132850;27;20077;-49
2020/12/13 00:53:50;;;;;;;60.88;37.95;;;5.30;99.90;;;;;;5133075;27;20050;-49
2020/12/13 00:56:55;;;;;;;59.13;36.63;;;5.30;99.90;;;;;;5118878;27;20054;-54
2020/12/13 00:59:59;;;;;;;59.75;36.85;;;5.30;99.90;;;;;;5132369;27;20054;-51
2020/12/13 01:03:08;;;;;;;57.72;32.75;;;5.30;99.90;;;;;;5132526;27;20042;-51
2020/12/13 01:06:23;;;;;;;52.35;33.35;;;5.30;99.90;;;;;;5132996;27;20042;-49
2020/12/13 01:09:27;;;;;;;41.72;26.55;;;5.30;99.90;;;;;;5132908;27;20042;-49
2020/12/13 01:12:32;;;;;;;40.80;23.85;;;5.30;99.90;;;;;;5120967;27;20046;-52
2020/12/13 01:15:36;;;;;;;32.70;21.15;;;5.30;99.90;;;;;;5132415;27;20165;-52
2020/12/13 01:18:40;;;;;;;28.85;19.35;;;5.30;99.90;;;;;;5132168;27;20532;-50
2020/12/13 01:21:45;;;;;;;33.22;21.05;;;5.30;99.90;;;;;;5131882;27;20042;-49
2020/12/13 01:24:50;;;;;;;40.78;26.55;;;5.20;99.90;;;;;;5132315;27;20042;-48
2020/12/13 01:27:54;;;;;;;57.35;34.75;;;5.10;99.90;;;;;;5131991;27;20034;-49
2020/12/13 01:30:58;;;;;;;50.80;32.15;;;5.00;99.90;;;;;;5111474;28;20047;-50
2020/12/13 01:34:02;;;;;;;55.20;33.60;;;5.00;99.90;;;;;;5129762;27;20050;-50
2020/12/13 01:37:06;;;;;;;57.05;34.45;;;4.90;99.90;;;;;;5132429;27;20053;-49
2020/12/13 01:40:11;;;;;;;53.00;32.65;;;4.80;99.90;;;;;;5119938;27;20038;-49
2020/12/13 01:43:20;;;;;;;43.63;27.23;;;4.80;99.90;;;;;;5125495;27;20042;-50
2020/12/13 01:46:27;;;;;;;41.70;26.75;;;4.90;99.90;;;;;;5131185;27;20038;-50
2020/12/13 01:49:43;;;;;;;43.25;26.55;;;4.80;99.90;;;;;;5127535;27;20034;-50
2020/12/13 01:52:47;;;;;;;45.22;25.70;;;4.70;99.90;;;;;;5126947;27;20393;-49
2020/12/13 01:55:56;;;;;;;43.40;26.65;;;4.60;99.90;;;;;;5123988;27;20413;-51
2020/12/13 01:59:02;;;;;;;43.33;28.70;;;4.60;99.90;;;;;;5118420;27;20525;-51
2020/12/13 02:02:07;;;;;;;55.50;33.60;;;4.60;99.90;;;;;;5111439;28;20038;-51
2020/12/13 02:05:13;;;;;;;58.13;33.83;;;4.60;99.90;;;;;;5113112;27;20046;-49
2020/12/13 02:08:22;;;;;;;69.25;39.45;;;4.60;99.90;;;;;;5111533;28;20505;-50
2020/12/13 02:11:31;;;;;;;128.07;65.15;;;4.60;99.90;;;;;;5110812;28;20035;-49
2020/12/13 02:14:35;;;;;;;72.00;40.78;;;4.60;99.90;;;;;;5111452;28;20066;-53
2020/12/13 02:17:41;;;;;;;38.40;23.70;;;4.60;99.90;;;;;;5110575;28;20055;-48
2020/12/13 02:20:45;;;;;;;45.33;25.33;;;4.70;99.90;;;;;;5110983;28;20039;-48
2020/12/13 02:23:50;;;;;;;66.60;37.40;;;4.80;99.90;;;;;;5110865;28;20217;-51
2020/12/13 02:26:54;;;;;;;48.22;30.35;;;4.70;99.90;;;;;;5112475;27;20066;-48
2020/12/13 02:29:59;;;;;;;43.22;29.33;;;4.60;99.90;;;;;;5115123;27;20034;-51
2020/12/13 02:33:03;;;;;;;52.00;34.08;;;4.60;99.90;;;;;;5128063;27;20042;-50
2020/12/13 02:36:08;;;;;;;49.88;33.05;;;4.60;99.90;;;;;;5130360;27;20129;-49
2020/12/13 02:39:12;;;;;;;41.47;25.63;;;4.60;99.90;;;;;;5127717;27;20452;-49
2020/12/13 02:42:16;;;;;;;27.65;18.83;;;4.60;99.90;;;;;;5125488;27;20073;-50
2020/12/13 02:45:20;;;;;;;22.77;15.18;;;4.50;99.90;;;;;;5127724;27;20053;-50
2020/12/13 02:48:25;;;;;;;29.05;16.80;;;4.50;99.90;;;;;;5124925;27;20405;-50
2020/12/13 02:51:29;;;;;;;29.65;19.15;;;4.40;99.90;;;;;;5109890;28;20047;-49
2020/12/13 02:54:34;;;;;;;35.40;21.63;;;4.40;99.90;;;;;;5110543;28;20047;-50
2020/12/13 02:57:40;;;;;;;42.42;26.20;;;4.30;99.90;;;;;;5110799;28;20043;-49
2020/12/13 03:00:44;;;;;;;37.35;22.65;;;4.20;99.90;;;;;;5110666;28;20042;-49
2020/12/13 03:03:49;;;;;;;39.55;24.75;;;4.30;99.90;;;;;;5110147;28;20058;-51
2020/12/13 03:06:53;;;;;;;49.10;28.95;;;4.30;99.90;;;;;;5110396;28;20042;-49
2020/12/13 03:09:58;;;;;;;191.77;71.10;;;4.30;99.90;;;;;;5110148;28;20046;-49
2020/12/13 03:13:02;;;;;;;43.10;24.50;;;4.20;99.90;;;;;;5110170;28;20510;-49
2020/12/13 03:16:06;;;;;;;32.80;20.25;;;4.10;99.90;;;;;;5110388;28;20401;-54
2020/12/13 03:19:10;;;;;;;48.95;27.08;;;4.10;99.90;;;;;;5110064;28;20050;-51
2020/12/13 03:22:14;;;;;;;38.00;21.90;;;4.20;99.90;;;;;;5117310;27;20039;-50
2020/12/13 03:25:18;;;;;;;37.47;21.77;;;4.10;99.90;;;;;;5109872;28;20527;-49
2020/12/13 03:28:22;;;;;;;37.35;20.67;;;4.10;99.90;;;;;;5110827;28;20074;-50
2020/12/13 03:31:27;;;;;;;30.73;19.27;;;4.00;99.90;;;;;;5109206;28;20054;-50
2020/12/13 03:34:31;;;;;;;39.47;23.17;;;4.00;99.90;;;;;;5127536;28;20536;-51
2020/12/13 03:37:35;;;;;;;51.20;30.13;;;4.00;99.90;;;;;;5117320;28;20264;-49
2020/12/13 03:40:39;;;;;;;107.30;52.15;;;4.00;99.90;;;;;;5127913;28;20042;-49
2020/12/13 03:43:43;;;;;;;130.18;64.53;;;4.10;99.90;;;;;;5129608;28;20061;-50
2020/12/13 03:46:48;;;;;;;56.22;31.63;;;4.20;99.90;;;;;;5130000;28;20054;-50
2020/12/13 03:49:52;;;;;;;31.02;18.30;;;4.10;99.90;;;;;;5130185;28;20425;-51
2020/12/13 03:52:56;;;;;;;25.95;15.88;;;4.00;99.90;;;;;;5129724;28;20022;-49
2020/12/13 03:56:00;;;;;;;29.33;16.73;;;3.90;99.90;;;;;;5117566;28;20069;-49
2020/12/13 03:59:04;;;;;;;33.47;19.63;;;3.90;99.90;;;;;;5128313;28;20108;-49
2020/12/13 04:02:08;;;;;;;39.60;21.75;;;3.80;99.90;;;;;;5125426;28;20050;-51
2020/12/13 04:05:13;;;;;;;29.05;16.73;;;3.80;99.90;;;;;;5129792;28;20046;-49
2020/12/13 04:08:18;;;;;;;29.65;17.45;;;3.80;99.90;;;;;;5123859;28;20050;-51
2020/12/13 04:11:22;;;;;;;25.05;13.55;;;3.80;99.90;;;;;;5117551;28;20046;-49
2020/12/13 04:14:26;;;;;;;29.60;18.35;;;3.70;99.90;;;;;;5129742;28;20042;-49
2020/12/13 04:17:30;;;;;;;39.78;21.95;;;3.70;99.90;;;;;;5129778;28;20054;-49
2020/12/13 04:20:34;;;;;;;39.40;21.67;;;3.80;99.90;;;;;;5111231;28;20043;-49
2020/12/13 04:23:38;;;;;;;35.38;19.52;;;3.80;99.90;;;;;;5123024;28;20046;-49
2020/12/13 04:26:42;;;;;;;30.65;18.35;;;3.80;99.90;;;;;;5109331;28;20045;-49
2020/12/13 04:29:46;;;;;;;26.90;16.42;;;3.70;99.90;;;;;;5109279;28;20031;-50
2020/12/13 04:32:51;;;;;;;26.88;16.00;;;3.70;99.90;;;;;;5108382;28;20410;-49
2020/12/13 04:35:55;;;;;;;29.17;17.98;;;3.70;99.90;;;;;;5109360;28;20034;-49
2020/12/13 04:38:59;;;;;;;39.45;20.55;;;3.70;99.90;;;;;;5109446;28;20398;-49
2020/12/13 04:42:04;;;;;;;41.05;20.13;;;3.70;99.90;;;;;;5115869;27;20042;-51
2020/12/13 04:45:09;;;;;;;43.38;25.00;;;3.60;99.90;;;;;;5127296;27;20041;-50
2020/12/13 04:48:16;;;;;;;46.13;26.25;;;3.60;99.90;;;;;;5133415;27;20038;-50
2020/12/13 04:51:26;;;;;;;45.92;25.40;;;3.60;99.90;;;;;;5133445;27;20520;-51
2020/12/13 04:54:31;;;;;;;34.65;18.27;;;3.60;99.90;;;;;;5133081;27;20062;-55
2020/12/13 04:57:36;;;;;;;29.08;15.73;;;3.60;99.90;;;;;;5132834;27;20042;-55
2020/12/13 05:00:45;;;;;;;39.17;24.33;;;3.50;99.90;;;;;;5119051;27;20042;-55
2020/12/13 05:03:49;;;;;;;32.85;20.52;;;3.50;99.90;;;;;;5132151;27;20412;-53
2020/12/13 05:06:54;;;;;;;38.05;21.95;;;3.50;99.90;;;;;;5133006;27;20034;-52
2020/12/13 05:09:58;;;;;;;58.05;26.13;;;3.60;99.90;;;;;;5132827;27;20051;-54
2020/12/13 05:13:02;;;;;;;656.63;58.97;;;3.40;99.90;;;;;;5132220;27;20046;-55
2020/12/13 05:16:10;;;;;;;688.30;52.78;;;3.30;99.90;;;;;;5120016;27;20043;-53
2020/12/13 05:19:15;;;;;;;294.35;28.88;;;3.20;99.90;;;;;;5132203;27;20046;-53
2020/12/13 05:22:22;;;;;;;41.33;21.30;;;3.00;99.90;;;;;;5132364;27;20046;-51
2020/12/13 05:25:34;;;;;;;119.60;22.65;;;3.00;99.90;;;;;;5132106;27;20516;-53
2020/12/13 05:28:46;;;;;;;42.85;17.35;;;3.00;99.90;;;;;;5125020;27;20054;-50
2020/12/13 05:31:50;;;;;;;147.68;21.25;;;3.00;99.90;;;;;;5122692;27;20437;-52
2020/12/13 05:34:54;;;;;;;34.65;18.80;;;3.00;99.90;;;;;;5119869;27;20042;-52
2020/12/13 05:37:58;;;;;;;38.75;21.48;;;2.90;99.90;;;;;;5132212;27;20046;-54
2020/12/13 05:41:08;;;;;;;38.40;21.50;;;3.10;99.90;;;;;;5131761;27;20046;-53
2020/12/13 05:53:45;;;;;;;215.00;37.25;;;3.30;99.90;;;;;;5130612;27;20054;-54
2020/12/13 05:56:59;;;;;;;721.60;80.20;;;3.30;99.90;;;;;;5131722;27;20054;-55
2020/12/13 06:00:07;;;;;;;53.00;28.23;;;3.40;99.90;;;;;;5131771;27;20050;-53
2020/12/13 06:03:29;;;;;;;50.33;25.77;;;3.40;99.90;;;;;;5131540;27;20042;-54
2020/12/13 06:06:40;;;;;;;44.22;25.38;;;3.40;99.90;;;;;;5124142;27;20042;-55
2020/12/13 06:09:45;;;;;;;47.53;26.83;;;3.30;99.90;;;;;;5122736;27;20404;-50
2020/12/13 06:12:58;;;;;;;376.42;52.10;;;3.30;99.90;;;;;;5119284;27;20038;-53
2020/12/13 06:16:03;;;;;;;400.17;53.22;;;3.40;99.90;;;;;;5118905;27;20424;-52
2020/12/13 06:19:08;;;;;;;48.40;26.15;;;3.40;99.90;;;;;;5131487;27;20061;-54
2020/12/13 06:22:18;;;;;;;454.98;37.47;;;3.40;99.90;;;;;;5131229;27;20039;-55
2020/12/13 06:25:23;;;;;;;839.33;53.15;;;3.00;99.90;;;;;;5131186;27;20050;-50
2020/12/13 06:28:27;;;;;;;313.83;27.08;;;2.30;99.90;;;;;;5125053;27;20039;-54
2020/12/13 06:31:36;;;;;;;1913.88;150.73;;;2.10;99.90;;;;;;5119448;27;20042;-52
2020/12/13 06:34:47;;;;;;;447.40;39.15;;;2.00;99.90;;;;;;5119665;27;20073;-53
2020/12/13 06:37:53;;;;;;;260.73;24.77;;;1.90;99.90;;;;;;5128039;27;20035;-52
2020/12/13 06:41:12;;;;;;;289.67;26.35;;;1.80;99.90;;;;;;5130678;27;20527;-49
2020/12/13 06:44:18;;;;;;;916.88;65.28;;;1.70;99.90;;;;;;5125456;27;20409;-55
2020/12/13 06:47:24;;;;;;;904.33;76.03;;;1.60;99.90;;;;;;5130854;27;20042;-53
2020/12/13 06:50:28;;;;;;;1805.57;178.07;;;1.60;99.90;;;;;;5116781;27;20035;-52
2020/12/13 06:53:33;;;;;;;202.07;23.55;;;1.60;99.90;;;;;;5123645;27;20034;-50
2020/12/13 06:56:39;;;;;;;84.93;21.50;;;1.60;99.90;;;;;;5118812;27;20061;-56
2020/12/13 06:59:45;;;;;;;168.77;23.98;;;1.60;99.90;;;;;;5120628;27;20043;-50
2020/12/13 07:03:00;;;;;;;244.43;41.63;;;1.60;99.90;;;;;;5114016;27;20421;-52
2020/12/13 07:06:06;;;;;;;56.22;30.27;;;1.60;99.90;;;;;;5111428;27;20524;-52
2020/12/13 07:09:13;;;;;;;58.88;31.23;;;1.80;99.90;;;;;;5116448;27;20433;-51
2020/12/13 07:12:18;;;;;;;47.83;27.55;;;2.40;99.90;;;;;;5123505;27;20519;-50
2020/12/13 07:15:35;;;;;;;39.65;24.48;;;4.40;99.90;;;;;;5122808;27;20045;-55
2020/12/13 07:18:46;;;;;;;27.48;19.95;;;6.50;99.90;;;;;;5117168;27;20054;-56
2020/12/13 07:21:59;;;;;;;28.50;20.15;;;8.50;99.90;;;;;;5117743;27;20050;-50
2020/12/13 07:25:03;;;;;;;18.58;13.88;;;10.50;99.90;;;;;;5120801;27;20050;-54
2020/12/13 07:28:07;;;;;;;17.27;12.40;;;12.40;99.90;;;;;;5118712;28;20042;-55
2020/12/13 07:31:12;;;;;;;17.08;11.70;;;14.00;99.90;;;;;;5127920;27;20065;-54
2020/12/13 07:34:16;;;;;;;15.02;11.40;;;14.90;99.90;;;;;;5125942;28;20050;-49
2020/12/13 07:37:21;;;;;;;15.15;10.55;;;13.80;99.90;;;;;;5126005;28;20050;-50
2020/12/13 07:40:27;;;;;;;10.93;8.60;;;14.60;99.90;;;;;;5123707;28;20046;-51
2020/12/13 07:43:31;;;;;;;11.10;7.80;;;16.00;99.90;;;;;;5117004;28;20436;-49
2020/12/13 07:46:36;;;;;;;8.38;6.85;;;17.60;99.90;;;;;;5110814;28;20066;-52
2020/12/13 07:49:40;;;;;;;10.43;7.50;;;18.60;99.90;;;;;;5118049;28;20038;-52
2020/12/13 07:52:44;;;;;;;8.43;5.85;;;19.80;99.90;;;;;;5118982;28;20592;-48
2020/12/13 07:55:49;;;;;;;7.50;5.70;;;20.90;98.00;;;;;;5125010;28;20050;-50
2020/12/13 07:59:17;;;;;;;9.25;6.00;;;20.90;96.30;;;;;;5117678;28;20054;-52
2020/12/13 08:02:22;;;;;;;9.75;6.93;;;21.70;92.80;;;;;;5115267;27;20062;-52
2020/12/13 08:05:28;;;;;;;9.98;7.90;;;21.40;90.00;;;;;;5116389;28;20038;-50
2020/12/13 08:08:42;;;;;;;8.10;6.97;;;19.70;91.00;;;;;;5120918;28;20035;-49
2020/12/13 08:11:48;;;;;;;9.13;6.70;;;17.50;92.90;;;;;;5123622;27;20063;-53
2020/12/13 08:14:52;;;;;;;7.25;6.03;;;16.90;96.40;;;;;;5123703;27;20042;-51
2020/12/13 08:18:04;;;;;;;9.80;6.28;;;18.20;95.90;;;;;;5113941;27;20050;-51
2020/12/13 08:21:10;;;;;;;6.88;5.38;;;20.80;93.80;;;;;;5117408;27;20034;-51
2020/12/13 08:24:15;;;;;;;5.20;4.70;;;22.40;90.80;;;;;;5115184;27;20054;-53
2020/12/13 08:27:20;;;;;;;4.75;4.25;;;22.60;85.50;;;;;;5117047;27;20043;-51
2020/12/13 08:30:25;;;;;;;6.15;4.45;;;22.20;88.00;;;;;;5113848;27;20041;-48
2020/12/13 08:52:15;;;;;;;15.98;5.70;;;16.10;94.70;;;;;;5111761;27;20039;-51
2020/12/13 08:55:26;;;;;;;17.85;7.70;;;15.90;94.10;;;;;;5112182;27;20031;-48
2020/12/13 08:58:49;;;;;;;17.80;7.32;;;15.90;93.90;;;;;;5112011;28;20046;-50
2020/12/13 09:01:56;;;;;;;;;;;17.90;92.00;;;;;;5110972;28;20047;-51
2020/12/13 09:05:02;;;;;;;7.95;6.90;;;18.60;88.80;;;;;;5121542;27;19930;-49
2020/12/13 09:08:08;;;;;;;14.00;7.75;;;19.70;86.80;;;;;;5114250;27;20043;-48
2020/12/13 09:11:28;;;;;;;8.73;6.90;;;20.20;90.00;;;;;;5113374;27;20038;-52
2020/12/13 09:14:34;;;;;;;8.85;7.32;;;22.40;85.70;;;;;;5124281;27;20043;-49
2020/12/13 09:17:40;;;;;;;7.32;6.10;;;23.10;82.80;;;;;;5119330;27;20061;-51
2020/12/13 09:20:44;;;;;;;7.63;6.82;;;23.90;79.50;;;;;;5117444;27;20047;-51
2020/12/13 09:23:57;;;;;;;7.50;6.70;;;24.70;81.40;;;;;;5124297;27;20043;-49
2020/12/13 09:27:17;;;;;;;9.65;7.32;;;25.90;71.20;;;;;;5117070;27;20046;-50
2020/12/13 09:30:22;;;;;;;9.15;7.35;;;26.40;70.00;;;;;;5112093;27;20034;-51
2020/12/13 09:33:26;;;;;;;9.40;7.70;;;26.80;67.40;;;;;;5107481;27;20048;-53
2020/12/13 09:36:31;;;;;;;9.05;7.68;;;27.70;68.30;;;;;;5112733;27;20059;-51
2020/12/13 09:39:35;;;;;;;7.97;7.18;;;25.70;68.30;;;;;;5122673;27;20528;-50
2020/12/13 09:42:40;;;;;;;9.52;7.85;;;23.10;73.30;;;;;;5117062;27;20517;-52
2020/12/13 09:45:44;;;;;;;9.60;8.27;;;22.50;73.60;;;;;;5118325;27;20046;-54
2020/12/13 09:48:49;;;;;;;11.20;8.70;;;22.40;73.80;;;;;;5114211;27;20043;-51
2020/12/13 09:51:57;;;;;;;9.90;8.15;;;23.00;73.90;;;;;;5115490;27;20035;-51
2020/12/13 09:55:02;;;;;;;12.00;8.20;;;19.10;77.50;;;;;;5116942;27;20413;-51
2020/12/13 09:58:07;;;;;;;9.82;8.82;;;18.20;86.60;;;;;;5115661;27;20050;-52
2020/12/13 10:01:13;;;;;;;10.25;9.23;;;16.00;91.10;;;;;;5118290;27;20042;-50
2020/12/13 10:04:20;;;;;;;15.57;10.15;;;16.10;95.50;;;;;;5124317;27;20049;-51
2020/12/13 10:08:54;;;;;;;18.27;11.13;;;16.30;95.30;;;;;;5124350;27;20113;-51
2020/12/13 10:10:49;;;;;;;12.48;9.70;;;17.80;93.60;;;;;;5121098;27;20042;-52
2020/12/13 10:13:53;;;;;;;10.43;8.98;;;19.50;91.10;;;;;;5119426;27;20042;-51
2020/12/13 10:16:57;;;;;;;12.10;10.80;;;22.60;86.40;;;;;;5119624;27;20448;-52
2020/12/13 10:20:02;;;;;;;8.00;7.22;;;25.70;75.50;;;;;;5120577;27;20038;-54
2020/12/13 10:23:07;;;;;;;7.97;7.22;;;27.00;73.70;;;;;;5114854;27;20046;-53
2020/12/13 10:26:11;;;;;;;8.50;6.97;;;27.60;67.30;;;;;;5123708;27;20043;-52
2020/12/13 10:29:15;;;;;;;7.05;6.35;;;28.50;67.40;;;;;;5118368;27;20042;-53
2020/12/13 10:32:20;;;;;;;7.07;6.25;;;28.50;61.50;;;;;;5114429;27;20046;-48
2020/12/13 10:35:24;;;;;;;6.90;5.72;;;27.30;62.20;;;;;;5109848;27;20042;-50
2020/12/13 10:38:28;;;;;;;6.75;6.15;;;25.80;65.30;;;;;;5119992;27;20047;-49
2020/12/13 10:41:32;;;;;;;8.00;6.07;;;25.00;65.20;;;;;;5116173;27;20528;-52
2020/12/13 10:44:36;;;;;;;7.38;5.63;;;25.30;67.30;;;;;;5122474;27;20046;-54
2020/12/13 10:47:40;;;;;;;6.05;5.45;;;26.20;66.00;;;;;;5127520;27;20615;-49
2020/12/13 10:50:44;;;;;;;6.93;5.80;;;27.00;64.90;;;;;;5125066;27;20046;-52
2020/12/13 10:53:49;;;;;;;11.13;9.95;;;28.90;62.30;;;;;;5129086;27;20058;-54
2020/12/13 10:56:53;;;;;;;7.85;6.95;;;30.10;56.60;;;;;;5115406;27;20042;-50
2020/12/13 10:59:57;;;;;;;6.43;5.75;;;30.30;61.20;;;;;;5109903;27;20058;-50
2020/12/13 11:03:01;;;;;;;5.63;4.78;;;28.20;60.00;;;;;;5111758;27;20508;-50
2020/12/13 11:06:08;;;;;;;6.20;5.60;;;29.40;59.70;;;;;;5117639;27;20509;-51
2020/12/13 11:09:12;;;;;;;9.05;7.45;;;25.20;60.80;;;;;;5117721;27;20038;-49
2020/12/13 11:12:17;;;;;;;10.13;9.15;;;23.80;67.60;;;;;;5112872;27;20054;-50
2020/12/13 11:15:21;;;;;;;8.55;7.75;;;23.00;72.00;;;;;;5115043;27;20058;-51
2020/12/13 11:18:30;;;;;;;6.10;5.50;;;24.90;69.60;;;;;;5117477;27;20050;-50
2020/12/13 11:21:35;;;;;;;5.80;5.20;;;27.00;64.00;;;;;;5117667;27;20046;-51
2020/12/13 11:24:40;;;;;;;7.20;6.50;;;27.90;64.20;;;;;;5120444;27;20038;-52
2020/12/13 11:27:44;;;;;;;6.78;5.68;;;25.40;61.80;;;;;;5125054;27;20039;-50
2020/12/13 11:30:49;;;;;;;7.55;6.85;;;23.80;62.90;;;;;;5123201;27;20050;-49
2020/12/13 11:33:52;;;;;;;7.32;6.50;;;22.40;66.40;;;;;;5120619;28;20410;-51
2020/12/13 11:36:57;;;;;;;7.22;6.18;;;23.50;68.60;;;;;;5115124;28;20417;-50
2020/12/13 11:40:01;;;;;;;6.45;5.82;;;26.50;65.40;;;;;;5126735;28;20607;-52
2020/12/13 11:43:05;;;;;;;4.10;3.70;;;27.60;63.70;;;;;;5109187;28;20057;-53
2020/12/13 11:46:09;;;;;;;4.10;3.70;;;29.40;59.90;;;;;;5122180;28;20046;-53
2020/12/13 11:49:13;;;;;;;5.20;3.78;;;30.40;56.80;;;;;;5120391;27;20038;-50
2020/12/13 11:52:17;;;;;;;4.07;3.67;;;30.80;57.40;;;;;;5133834;27;20531;-50
2020/12/13 11:55:21;;;;;;;4.13;3.72;;;30.70;55.10;;;;;;5130997;27;20046;-51
2020/12/13 11:58:24;;;;;;;6.05;5.45;;;30.20;55.70;;;;;;5129846;27;20058;-54
2020/12/13 12:01:29;;;;;;;9.95;8.88;;;29.20;57.40;;;;;;5131060;27;20053;-50
2020/12/13 12:04:33;;;;;;;9.60;8.60;;;25.00;59.20;;;;;;5123934;27;20042;-49
2020/12/13 12:07:38;;;;;;;10.82;8.55;;;21.80;66.30;;;;;;5121357;27;20409;-52
2020/12/13 12:10:42;;;;;;;7.63;6.82;;;19.90;74.80;;;;;;5125275;27;20039;-49
2020/12/13 12:13:46;;;;;;;7.10;6.40;;;21.20;75.00;;;;;;5126014;27;20512;-51
2020/12/13 12:16:51;;;;;;;7.75;5.72;;;24.40;67.90;;;;;;5133509;27;20058;-53
2020/12/13 12:19:55;;;;;;;5.90;5.40;;;26.80;64.70;;;;;;5124151;27;20038;-49
2020/12/13 12:22:59;;;;;;;6.22;5.50;;;27.30;60.20;;;;;;5133310;27;20042;-51
2020/12/13 12:26:03;;;;;;;7.18;6.47;;;27.10;61.10;;;;;;5127051;27;20042;-53
2020/12/13 12:29:07;;;;;;;6.78;6.07;;;27.10;60.90;;;;;;5128442;27;20540;-48
2020/12/13 12:32:12;;;;;;;7.40;6.70;;;27.10;61.20;;;;;;5117888;27;20036;-50
2020/12/13 12:35:16;;;;;;;7.30;6.43;;;24.90;62.50;;;;;;5127318;27;20039;-49
2020/12/13 12:38:20;;;;;;;8.82;7.93;;;25.80;59.90;;;;;;5118136;27;20034;-50
2020/12/13 12:41:24;;;;;;;7.95;7.05;;;25.20;59.40;;;;;;5113265;27;20042;-49
2020/12/13 12:44:28;;;;;;;7.07;5.10;;;25.80;63.10;;;;;;5114548;28;20396;-50
2020/12/13 12:47:32;;;;;;;6.78;4.63;;;27.00;62.40;;;;;;5117647;28;20031;-50
2020/12/13 12:50:37;;;;;;;4.13;3.72;;;28.10;61.40;;;;;;5114207;28;20055;-50
2020/12/13 12:53:42;;;;;;;5.25;4.38;;;28.40;57.90;;;;;;5125855;28;20035;-50
2020/12/13 12:56:47;;;;;;;4.85;4.03;;;27.30;60.30;;;;;;5114980;28;20050;-49
2020/12/13 13:03:02;;;;;;;5.00;4.00;;;27.10;57.40;;;;;;5114226;28;20043;-53
2020/12/13 13:09:20;;;;;;;3.40;3.10;;;28.80;56.40;;;;;;5118596;28;20046;-52
2020/12/13 13:12:25;;;;;;;3.15;2.45;;;29.10;56.70;;;;;;5113820;28;20046;-51
2020/12/13 13:15:47;;;;;;;2.65;2.42;;;29.80;56.40;;;;;;5114278;28;20050;-52
2020/12/13 13:18:55;;;;;;;5.50;2.22;;;29.80;55.40;;;;;;5117303;28;20509;-49
2020/12/13 13:22:04;;;;;;;2.42;2.10;;;29.30;55.00;;;;;;5122274;28;20062;-52
2020/12/13 13:25:09;;;;;;;3.72;2.20;;;29.00;54.80;;;;;;5115076;28;20042;-50
2020/12/13 13:28:13;;;;;;;2.67;1.80;;;28.90;55.60;;;;;;5116603;28;20042;-52
2020/12/13 13:31:17;;;;;;;2.90;1.85;;;29.10;54.00;;;;;;5111155;28;20042;-50
2020/12/13 13:34:22;;;;;;;2.08;1.50;;;28.90;54.30;;;;;;5116921;28;20046;-50
2020/12/13 13:37:27;;;;;;;1.50;1.15;;;28.10;53.30;;;;;;5116671;28;20793;-49
2020/12/13 13:40:32;;;;;;;1.65;1.13;;;27.60;56.20;;;;;;5115673;28;20039;-49
2020/12/13 13:43:24;;;;;;;1.83;1.25;;;27.20;54.40;;;;;;5117100;27;20386;-53
2020/12/13 13:52:59;;;;;;;1.13;0.88;;;27.00;53.40;;;;;;5100836;28;20067;-51
2020/12/13 13:56:10;;;;;;;1.17;0.90;;;26.50;53.70;;;;;;5101950;28;20032;-50
2020/12/13 13:59:20;;;;;;;2.85;0.80;;;26.10;54.30;;;;;;5104554;28;20039;-52
2020/12/13 14:02:24;;;;;;;1.63;1.05;;;25.90;55.10;;;;;;5103727;28;20032;-52
2020/12/13 14:05:29;;;;;;;2.17;0.85;;;25.50;56.60;;;;;;5101583;28;20493;-50
2020/12/13 14:08:42;;;;;;;2.55;1.10;;;25.70;54.80;;;;;;5104426;28;20051;-50
2020/12/13 14:11:50;;;;;;;2.45;1.20;;;25.60;56.10;;;;;;5103816;28;20032;-49
2020/12/13 14:14:57;;;;;;;1.35;0.85;;;25.30;55.60;;;;;;5103754;28;20039;-49
2020/12/13 14:18:01;;;;;;;1.60;1.00;;;24.60;55.50;;;;;;5100726;28;20035;-50
2020/12/13 14:21:06;;;;;;;2.33;1.33;;;24.70;58.50;;;;;;5101198;28;20043;-48
2020/12/13 14:24:10;;;;;;;1.20;1.02;;;24.40;56.30;;;;;;5103661;28;20486;-49
2020/12/13 14:27:14;;;;;;;1.70;1.05;;;23.60;57.90;;;;;;5102642;28;20039;-48
2020/12/13 14:30:18;;;;;;;2.13;1.30;;;23.40;61.00;;;;;;5100151;28;20028;-49
2020/12/13 14:33:22;;;;;;;3.85;1.40;;;23.50;58.00;;;;;;5100067;28;20043;-48
2020/12/13 14:36:27;;;;;;;1.50;1.40;;;23.50;59.40;;;;;;5097855;28;20036;-49
2020/12/13 14:39:37;;;;;;;3.17;1.60;;;23.10;58.40;;;;;;5110602;28;20498;-49
2020/12/13 14:42:42;;;;;;;3.28;1.80;;;22.70;61.30;;;;;;5100782;28;20036;-49
2020/12/13 14:45:46;;;;;;;1.85;1.60;;;22.30;60.20;;;;;;5103031;28;20042;-49
2020/12/13 14:49:23;;;;;;;2.53;1.60;;;22.30;63.00;;;;;;5099353;28;20032;-50
2020/12/13 14:52:27;;;;;;;3.08;1.70;;;22.20;62.30;;;;;;5096455;28;20035;-49
2020/12/13 14:55:32;;;;;;;3.17;2.25;;;21.80;61.60;;;;;;5084903;28;20040;-50
2020/12/13 14:58:37;;;;;;;5.82;3.50;;;21.20;61.00;;;;;;5087872;28;20044;-49
2020/12/13 15:01:41;;;;;;;3.83;2.42;;;20.80;62.30;;;;;;5082966;28;20035;-53
2020/12/13 15:04:45;;;;;;;4.03;2.40;;;20.50;64.10;;;;;;5085682;28;20028;-49
2020/12/13 15:07:49;;;;;;;3.50;2.45;;;19.90;64.50;;;;;;5088953;28;20419;-52
2020/12/13 15:10:53;;;;;;;8.68;4.40;;;19.50;65.00;;;;;;5089031;28;20039;-49
2020/12/13 15:17:11;;;;;;;4.68;3.63;;;18.40;67.90;;;;;;5088801;28;20036;-53
2020/12/13 15:20:17;;;;;;;6.10;3.35;;;18.10;70.00;;;;;;5088707;28;20376;-54
2020/12/13 15:23:21;;;;;;;4.15;2.80;;;17.80;71.10;;;;;;5088778;28;20040;-50
2020/12/13 15:26:25;;;;;;;4.55;2.67;;;17.30;70.20;;;;;;5090173;28;20422;-49
2020/12/13 15:29:29;;;;;;;2.90;1.92;;;16.80;71.40;;;;;;5088375;28;20040;-49
2020/12/13 15:32:33;;;;;;;8.38;4.53;;;15.80;74.40;;;;;;5087828;28;20044;-50
2020/12/13 15:35:37;;;;;;;4.13;2.95;;;14.70;78.20;;;;;;5089177;28;20048;-48
2020/12/13 15:38:42;;;;;;;6.95;5.40;;;13.80;81.80;;;;;;5086244;28;20043;-47
2020/12/13 15:41:46;;;;;;;6.90;4.75;;;13.10;88.70;;;;;;5087077;28;20036;-49
2020/12/13 15:44:50;;;;;;;11.73;5.30;;;12.60;92.10;;;;;;5094300;28;20040;-50
2020/12/13 15:47:56;;;;;;;9.45;5.13;;;12.20;95.10;;;;;;5089639;28;20043;-48
2020/12/13 15:51:01;;;;;;;5.90;4.18;;;11.80;98.60;;;;;;5089797;28;20036;-50
2020/12/13 15:54:05;;;;;;;19.80;12.73;;;11.50;99.90;;;;;;5090219;28;20040;-50
2020/12/13 15:57:09;;;;;;;37.83;25.13;;;11.20;99.90;;;;;;5084544;28;20039;-48
2020/12/13 16:00:13;;;;;;;46.50;30.08;;;10.90;99.90;;;;;;5088419;28;20043;-49
2020/12/13 16:03:19;;;;;;;51.08;34.53;;;10.70;99.90;;;;;;5087383;28;20047;-48
2020/12/13 16:06:24;;;;;;;54.45;34.92;;;10.50;99.90;;;;;;5084883;28;20051;-48
2020/12/13 16:09:28;;;;;;;72.28;43.95;;;10.30;99.90;;;;;;5087613;28;20058;-52
2020/12/13 16:12:32;;;;;;;42.90;27.70;;;10.10;99.90;;;;;;5085587;28;20050;-49
2020/12/13 16:15:37;;;;;;;41.58;27.75;;;9.80;99.90;;;;;;5084642;28;20118;-47
2020/12/13 16:18:41;;;;;;;32.70;20.45;;;9.60;99.90;;;;;;5085029;28;20048;-51
2020/12/13 16:21:47;;;;;;;26.48;16.50;;;9.50;99.90;;;;;;5079361;28;20039;-50
2020/12/13 16:24:51;;;;;;;19.30;12.07;;;9.40;99.90;;;;;;5085425;28;20540;-48
2020/12/13 16:27:56;;;;;;;17.85;10.93;;;9.30;99.90;;;;;;5086078;28;20047;-48
2020/12/13 16:31:01;;;;;;;18.98;11.40;;;9.20;99.90;;;;;;5080881;28;20509;-49
2020/12/13 16:34:05;;;;;;;31.48;20.70;;;9.10;99.90;;;;;;5083674;28;20050;-51
2020/12/13 16:37:12;;;;;;;15.55;11.52;;;9.00;99.90;;;;;;5083117;28;20039;-49
2020/12/13 16:40:17;;;;;;;28.23;18.90;;;8.90;99.90;;;;;;5081935;28;20043;-48
2020/12/13 16:50:09;;;;;;;21.70;12.75;;;8.70;99.90;;;;;;5084949;28;20047;-49